Osceola, IA

2:31 AM CDT on March 27, 2015 (GMT -0500)
IADOT Osceola (I-35) | | Change Station
CLOSE
Current Station
Personal Weather Station
Location: Osceola, IA
Elevation: 1095 ft
Nearby Weather Stations

Elev 1095 ft 41.03 °N, 93.80 °W | Updated 29 minutes ago

Partly Cloudy
Partly Cloudy
29 °F
Feels Like 22 °F
N
7
Wind Variable Wind from NNE
Gusts 11.0 mph

Today
High -- | Low -- °F
--% Chance of Precip.
Yesterday
High -- | Low -- °F
Precip. -- in
7:07 AM 7:34 PM
Waxing Crescent, 50% visible
Pressure 30.18 in
Visibility 10.0 miles
Clouds Scattered Clouds 2500 ft
Scattered Clouds 4800 ft
Windchill 22 °F
Dew Point 23 °F
Humidity 77%
Rainfall in
Snow Depth Not available.
UV 0 out of 12
Pollen 6.50 out of 12
Air Quality Not available.
Flu Activity Not available.
METAR KI75 270715Z AUTO 34007KT 10SM SCT025 SCT048 M01/M05 A3018 RMK AO2 T10121054

More Conditions Fewer Conditions

Pressure 30.18 in
Visibility 10.0 miles
Clouds Scattered Clouds 2500 ft
Scattered Clouds 4800 ft
Windchill 22 °F
Dew Point 23 °F
Humidity 77%
Rainfall in
Snow Depth Not available.
UV 0 out of 12
Pollen 6.50 out of 12
Air Quality Not available.
Flu Activity Not available.
METAR KI75 270715Z AUTO 34007KT 10SM SCT025 SCT048 M01/M05 A3018 RMK AO2 T10121054

More Conditions Fewer Conditions

10-Day Weather Forecast

Almanac

Astronomy

Mar. 27, 2015 Rise Set
Actual Time
Civil Twilight
Nautical Twilight
Astronomical Twilight
Moon
Length of Visible Light
Length of Day
Tomorrow will be .
, % of the Moon is Illuminated

Today's Extremes

State Highs State Lows

Community

WunderPhotos

Upload Photos

1,808,701 photos uploaded!

WunderBlogs® & News

Nearby

Air Quality

  Air Quality AQ Index Pollutant
Not available.

Snow Depth

Station Depth Elevation

Earthquake Activity

City Distance Mag. Time & Date
Minimum magnitude displayed is 2.5.

Coastal Water Temperatures

Place Temperature

Stations

Nearby Weather Stations

Station Location Temp. Windchill Dew Point Humidity Wind Precip. Elev Updated Type